sensor_id;sensor_type;location;lat;lon;timestamp;P1;durP1;ratioP1;P2;durP2;ratioP2
25854;SDS011;13680;49.936;11.344;2022-08-06T00:00:43;3.85;;;1.40;;
25854;SDS011;13680;49.936;11.344;2022-08-06T00:03:09;3.05;;;1.50;;
25854;SDS011;13680;49.936;11.344;2022-08-06T00:05:34;3.33;;;1.42;;
25854;SDS011;13680;49.936;11.344;2022-08-06T00:07:59;4.65;;;1.23;;
25854;SDS011;13680;49.936;11.344;2022-08-06T00:10:25;3.53;;;1.40;;
25854;SDS011;13680;49.936;11.344;2022-08-06T00:12:51;7.07;;;1.30;;
25854;SDS011;13680;49.936;11.344;2022-08-06T00:15:17;3.25;;;1.35;;
25854;SDS011;13680;49.936;11.344;2022-08-06T00:17:45;3.80;;;1.40;;
25854;SDS011;13680;49.936;11.344;2022-08-06T00:20:11;2.47;;;1.48;;
25854;SDS011;13680;49.936;11.344;2022-08-06T00:22:38;2.75;;;1.33;;
25854;SDS011;13680;49.936;11.344;2022-08-06T00:25:04;4.03;;;1.40;;
25854;SDS011;13680;49.936;11.344;2022-08-06T00:27:30;6.65;;;1.55;;
25854;SDS011;13680;49.936;11.344;2022-08-06T00:29:55;5.45;;;1.80;;
25854;SDS011;13680;49.936;11.344;2022-08-06T00:32:20;3.78;;;1.73;;
25854;SDS011;13680;49.936;11.344;2022-08-06T00:34:46;3.65;;;1.65;;
25854;SDS011;13680;49.936;11.344;2022-08-06T00:37:11;8.95;;;1.83;;
25854;SDS011;13680;49.936;11.344;2022-08-06T00:39:37;3.55;;;1.83;;
25854;SDS011;13680;49.936;11.344;2022-08-06T00:42:02;3.55;;;1.70;;
25854;SDS011;13680;49.936;11.344;2022-08-06T00:44:28;4.15;;;1.80;;
25854;SDS011;13680;49.936;11.344;2022-08-06T00:46:53;7.47;;;1.60;;
25854;SDS011;13680;49.936;11.344;2022-08-06T00:49:19;13.07;;;2.63;;
25854;SDS011;13680;49.936;11.344;2022-08-06T00:51:44;8.00;;;1.77;;
25854;SDS011;13680;49.936;11.344;2022-08-06T00:54:11;7.20;;;2.10;;
25854;SDS011;13680;49.936;11.344;2022-08-06T00:56:36;5.30;;;2.15;;
25854;SDS011;13680;49.936;11.344;2022-08-06T00:59:03;5.25;;;1.90;;
25854;SDS011;13680;49.936;11.344;2022-08-06T01:01:29;4.10;;;1.65;;
25854;SDS011;13680;49.936;11.344;2022-08-06T01:03:55;4.90;;;2.10;;
25854;SDS011;13680;49.936;11.344;2022-08-06T01:06:21;3.90;;;2.58;;
25854;SDS011;13680;49.936;11.344;2022-08-06T01:08:47;3.30;;;1.70;;
25854;SDS011;13680;49.936;11.344;2022-08-06T01:11:12;4.28;;;2.20;;
25854;SDS011;13680;49.936;11.344;2022-08-06T01:13:38;6.10;;;2.25;;
25854;SDS011;13680;49.936;11.344;2022-08-06T01:16:15;4.93;;;1.77;;
25854;SDS011;13680;49.936;11.344;2022-08-06T01:27:37;6.95;;;3.00;;
25854;SDS011;13680;49.936;11.344;2022-08-06T01:30:13;6.55;;;2.20;;
25854;SDS011;13680;49.936;11.344;2022-08-06T01:33:00;3.35;;;1.90;;
25854;SDS011;13680;49.936;11.344;2022-08-06T01:35:30;9.90;;;2.33;;
25854;SDS011;13680;49.936;11.344;2022-08-06T01:40:50;5.95;;;2.72;;
25854;SDS011;13680;49.936;11.344;2022-08-06T01:43:17;7.22;;;2.17;;
25854;SDS011;13680;49.936;11.344;2022-08-06T01:45:45;6.70;;;2.17;;
25854;SDS011;13680;49.936;11.344;2022-08-06T01:48:18;7.03;;;2.83;;
25854;SDS011;13680;49.936;11.344;2022-08-06T01:50:48;6.80;;;3.72;;
25854;SDS011;13680;49.936;11.344;2022-08-06T01:53:17;4.82;;;2.67;;
25854;SDS011;13680;49.936;11.344;2022-08-06T01:55:49;4.50;;;2.58;;
25854;SDS011;13680;49.936;11.344;2022-08-06T01:58:21;6.10;;;2.83;;
25854;SDS011;13680;49.936;11.344;2022-08-06T02:00:49;7.88;;;2.88;;
25854;SDS011;13680;49.936;11.344;2022-08-06T02:03:19;6.55;;;2.90;;
25854;SDS011;13680;49.936;11.344;2022-08-06T02:05:49;8.23;;;2.50;;
25854;SDS011;13680;49.936;11.344;2022-08-06T02:08:18;5.50;;;3.38;;
25854;SDS011;13680;49.936;11.344;2022-08-06T02:10:46;3.78;;;2.60;;
25854;SDS011;13680;49.936;11.344;2022-08-06T02:13:15;4.55;;;2.50;;
25854;SDS011;13680;49.936;11.344;2022-08-06T02:15:42;4.28;;;2.45;;
25854;SDS011;13680;49.936;11.344;2022-08-06T02:18:09;7.43;;;2.88;;
25854;SDS011;13680;49.936;11.344;2022-08-06T02:20:37;8.50;;;3.22;;
25854;SDS011;13680;49.936;11.344;2022-08-06T02:23:06;3.28;;;2.67;;
25854;SDS011;13680;49.936;11.344;2022-08-06T02:25:34;6.35;;;2.60;;
25854;SDS011;13680;49.936;11.344;2022-08-06T02:28:04;4.15;;;2.65;;
25854;SDS011;13680;49.936;11.344;2022-08-06T02:30:32;7.45;;;2.70;;
25854;SDS011;13680;49.936;11.344;2022-08-06T02:32:59;4.35;;;2.67;;
25854;SDS011;13680;49.936;11.344;2022-08-06T02:35:25;7.50;;;2.38;;
25854;SDS011;13680;49.936;11.344;2022-08-06T02:38:02;3.95;;;2.55;;
25854;SDS011;13680;49.936;11.344;2022-08-06T02:40:35;6.88;;;2.90;;
25854;SDS011;13680;49.936;11.344;2022-08-06T02:43:22;6.45;;;2.60;;
25854;SDS011;13680;49.936;11.344;2022-08-06T02:46:14;6.97;;;2.67;;
25854;SDS011;13680;49.936;11.344;2022-08-06T02:51:19;3.30;;;2.90;;
25854;SDS011;13680;49.936;11.344;2022-08-06T02:53:59;13.77;;;3.55;;
25854;SDS011;13680;49.936;11.344;2022-08-06T02:56:30;5.97;;;3.13;;
25854;SDS011;13680;49.936;11.344;2022-08-06T02:58:58;5.40;;;3.40;;
25854;SDS011;13680;49.936;11.344;2022-08-06T03:01:31;8.02;;;3.50;;
25854;SDS011;13680;49.936;11.344;2022-08-06T03:04:00;6.35;;;3.05;;
25854;SDS011;13680;49.936;11.344;2022-08-06T03:06:28;8.10;;;3.55;;
25854;SDS011;13680;49.936;11.344;2022-08-06T03:08:58;8.23;;;3.00;;
25854;SDS011;13680;49.936;11.344;2022-08-06T03:11:25;6.68;;;3.22;;
25854;SDS011;13680;49.936;11.344;2022-08-06T03:13:54;3.60;;;2.40;;
25854;SDS011;13680;49.936;11.344;2022-08-06T03:16:21;6.05;;;2.83;;
25854;SDS011;13680;49.936;11.344;2022-08-06T03:18:48;4.47;;;2.50;;
25854;SDS011;13680;49.936;11.344;2022-08-06T03:21:15;7.50;;;2.38;;
25854;SDS011;13680;49.936;11.344;2022-08-06T03:23:44;5.28;;;2.20;;
25854;SDS011;13680;49.936;11.344;2022-08-06T03:26:12;3.50;;;1.70;;
25854;SDS011;13680;49.936;11.344;2022-08-06T03:28:38;4.47;;;2.03;;
25854;SDS011;13680;49.936;11.344;2022-08-06T03:31:04;3.38;;;2.08;;
25854;SDS011;13680;49.936;11.344;2022-08-06T03:33:30;3.15;;;1.90;;
25854;SDS011;13680;49.936;11.344;2022-08-06T03:35:58;4.32;;;2.42;;
25854;SDS011;13680;49.936;11.344;2022-08-06T03:38:25;5.82;;;2.03;;
25854;SDS011;13680;49.936;11.344;2022-08-06T03:40:52;4.05;;;1.63;;
25854;SDS011;13680;49.936;11.344;2022-08-06T03:43:19;5.50;;;1.80;;
25854;SDS011;13680;49.936;11.344;2022-08-06T03:45:48;4.55;;;1.80;;
25854;SDS011;13680;49.936;11.344;2022-08-06T03:48:19;3.05;;;1.40;;
25854;SDS011;13680;49.936;11.344;2022-08-06T03:50:49;3.05;;;1.60;;
25854;SDS011;13680;49.936;11.344;2022-08-06T03:53:18;4.25;;;1.77;;
25854;SDS011;13680;49.936;11.344;2022-08-06T03:55:47;1.30;;;1.20;;
25854;SDS011;13680;49.936;11.344;2022-08-06T03:58:13;3.25;;;1.23;;
25854;SDS011;13680;49.936;11.344;2022-08-06T04:00:42;3.70;;;1.40;;
25854;SDS011;13680;49.936;11.344;2022-08-06T04:03:10;1.60;;;1.20;;
25854;SDS011;13680;49.936;11.344;2022-08-06T04:05:37;2.63;;;1.15;;
25854;SDS011;13680;49.936;11.344;2022-08-06T04:08:05;5.78;;;1.65;;
25854;SDS011;13680;49.936;11.344;2022-08-06T04:10:33;3.03;;;1.00;;
25854;SDS011;13680;49.936;11.344;2022-08-06T04:13:04;1.73;;;1.15;;
25854;SDS011;13680;49.936;11.344;2022-08-06T04:15:33;5.70;;;1.00;;
25854;SDS011;13680;49.936;11.344;2022-08-06T04:18:00;6.20;;;1.20;;
25854;SDS011;13680;49.936;11.344;2022-08-06T04:20:26;2.53;;;0.73;;
25854;SDS011;13680;49.936;11.344;2022-08-06T04:22:53;2.10;;;0.88;;
25854;SDS011;13680;49.936;11.344;2022-08-06T04:25:19;1.40;;;0.65;;
25854;SDS011;13680;49.936;11.344;2022-08-06T04:27:46;1.38;;;0.98;;
25854;SDS011;13680;49.936;11.344;2022-08-06T04:30:13;3.05;;;0.77;;
25854;SDS011;13680;49.936;11.344;2022-08-06T04:32:38;2.42;;;0.90;;
25854;SDS011;13680;49.936;11.344;2022-08-06T04:35:05;2.25;;;1.00;;
25854;SDS011;13680;49.936;11.344;2022-08-06T04:37:33;2.97;;;0.80;;
25854;SDS011;13680;49.936;11.344;2022-08-06T04:39:59;3.17;;;1.10;;
25854;SDS011;13680;49.936;11.344;2022-08-06T04:42:26;2.22;;;0.85;;
25854;SDS011;13680;49.936;11.344;2022-08-06T04:44:52;3.15;;;0.90;;
25854;SDS011;13680;49.936;11.344;2022-08-06T04:47:18;2.88;;;0.93;;
25854;SDS011;13680;49.936;11.344;2022-08-06T04:49:44;0.68;;;0.55;;
25854;SDS011;13680;49.936;11.344;2022-08-06T04:52:19;4.70;;;1.02;;
25854;SDS011;13680;49.936;11.344;2022-08-06T04:54:46;3.15;;;0.82;;
25854;SDS011;13680;49.936;11.344;2022-08-06T04:57:11;1.23;;;0.73;;
25854;SDS011;13680;49.936;11.344;2022-08-06T04:59:37;1.52;;;0.73;;
25854;SDS011;13680;49.936;11.344;2022-08-06T05:02:02;5.03;;;0.85;;
25854;SDS011;13680;49.936;11.344;2022-08-06T05:04:28;2.67;;;0.85;;
25854;SDS011;13680;49.936;11.344;2022-08-06T05:06:56;2.58;;;0.70;;
25854;SDS011;13680;49.936;11.344;2022-08-06T05:09:26;2.60;;;0.65;;
25854;SDS011;13680;49.936;11.344;2022-08-06T05:11:55;2.63;;;0.90;;
25854;SDS011;13680;49.936;11.344;2022-08-06T05:14:45;3.78;;;0.68;;
25854;SDS011;13680;49.936;11.344;2022-08-06T05:17:15;2.10;;;0.60;;
25854;SDS011;13680;49.936;11.344;2022-08-06T05:19:46;2.10;;;0.70;;
25854;SDS011;13680;49.936;11.344;2022-08-06T05:24:44;2.13;;;0.55;;
25854;SDS011;13680;49.936;11.344;2022-08-06T05:27:12;0.88;;;0.50;;
25854;SDS011;13680;49.936;11.344;2022-08-06T05:29:39;3.92;;;0.82;;
25854;SDS011;13680;49.936;11.344;2022-08-06T05:32:05;2.22;;;0.77;;
25854;SDS011;13680;49.936;11.344;2022-08-06T05:34:30;1.70;;;0.68;;
25854;SDS011;13680;49.936;11.344;2022-08-06T05:36:56;3.42;;;0.73;;
25854;SDS011;13680;49.936;11.344;2022-08-06T05:39:21;2.80;;;0.68;;
25854;SDS011;13680;49.936;11.344;2022-08-06T05:41:48;2.58;;;0.77;;
25854;SDS011;13680;49.936;11.344;2022-08-06T05:44:14;0.98;;;0.65;;
25854;SDS011;13680;49.936;11.344;2022-08-06T05:46:45;1.45;;;0.77;;
25854;SDS011;13680;49.936;11.344;2022-08-06T05:52:04;3.00;;;0.60;;
25854;SDS011;13680;49.936;11.344;2022-08-06T05:54:43;3.92;;;0.60;;
25854;SDS011;13680;49.936;11.344;2022-08-06T05:57:29;2.03;;;0.70;;
25854;SDS011;13680;49.936;11.344;2022-08-06T05:59:59;4.60;;;0.75;;
25854;SDS011;13680;49.936;11.344;2022-08-06T06:02:33;2.13;;;0.70;;
25854;SDS011;13680;49.936;11.344;2022-08-06T06:05:01;1.08;;;0.50;;
25854;SDS011;13680;49.936;11.344;2022-08-06T06:07:27;2.88;;;0.50;;
25854;SDS011;13680;49.936;11.344;2022-08-06T06:09:55;3.13;;;0.70;;
25854;SDS011;13680;49.936;11.344;2022-08-06T06:12:21;2.50;;;0.60;;
25854;SDS011;13680;49.936;11.344;2022-08-06T06:14:47;1.35;;;0.77;;
25854;SDS011;13680;49.936;11.344;2022-08-06T06:22:53;4.90;;;1.15;;
25854;SDS011;13680;49.936;11.344;2022-08-06T06:25:40;3.65;;;0.60;;
25854;SDS011;13680;49.936;11.344;2022-08-06T06:28:50;3.03;;;0.90;;
25854;SDS011;13680;49.936;11.344;2022-08-06T06:31:16;1.98;;;0.68;;
25854;SDS011;13680;49.936;11.344;2022-08-06T06:36:46;1.40;;;0.68;;
25854;SDS011;13680;49.936;11.344;2022-08-06T06:39:23;3.58;;;0.82;;
25854;SDS011;13680;49.936;11.344;2022-08-06T06:42:08;2.63;;;0.70;;
25854;SDS011;13680;49.936;11.344;2022-08-06T06:44:46;5.28;;;0.90;;
25854;SDS011;13680;49.936;11.344;2022-08-06T06:47:43;5.22;;;0.90;;
25854;SDS011;13680;49.936;11.344;2022-08-06T06:50:22;3.83;;;0.70;;
25854;SDS011;13680;49.936;11.344;2022-08-06T06:53:03;3.33;;;0.63;;
25854;SDS011;13680;49.936;11.344;2022-08-06T06:55:32;1.40;;;0.75;;
25854;SDS011;13680;49.936;11.344;2022-08-06T06:58:03;1.30;;;0.63;;
25854;SDS011;13680;49.936;11.344;2022-08-06T07:00:33;2.47;;;0.57;;
25854;SDS011;13680;49.936;11.344;2022-08-06T07:02:59;1.45;;;0.75;;
25854;SDS011;13680;49.936;11.344;2022-08-06T07:05:27;3.70;;;0.50;;
25854;SDS011;13680;49.936;11.344;2022-08-06T07:07:55;2.53;;;0.50;;
25854;SDS011;13680;49.936;11.344;2022-08-06T07:10:22;2.17;;;0.80;;
25854;SDS011;13680;49.936;11.344;2022-08-06T07:12:49;1.88;;;0.60;;
25854;SDS011;13680;49.936;11.344;2022-08-06T07:15:16;2.58;;;0.95;;
25854;SDS011;13680;49.936;11.344;2022-08-06T07:17:44;3.67;;;0.75;;
25854;SDS011;13680;49.936;11.344;2022-08-06T07:20:12;2.53;;;0.73;;
25854;SDS011;13680;49.936;11.344;2022-08-06T07:22:42;4.70;;;0.65;;
25854;SDS011;13680;49.936;11.344;2022-08-06T07:25:09;1.98;;;0.65;;
25854;SDS011;13680;49.936;11.344;2022-08-06T07:27:38;4.43;;;0.70;;
25854;SDS011;13680;49.936;11.344;2022-08-06T07:30:05;2.45;;;0.70;;
25854;SDS011;13680;49.936;11.344;2022-08-06T07:32:32;5.35;;;1.20;;
25854;SDS011;13680;49.936;11.344;2022-08-06T07:35:06;3.17;;;1.10;;
25854;SDS011;13680;49.936;11.344;2022-08-06T07:37:33;4.03;;;0.82;;
25854;SDS011;13680;49.936;11.344;2022-08-06T07:40:00;4.32;;;0.73;;
25854;SDS011;13680;49.936;11.344;2022-08-06T07:42:28;3.90;;;0.68;;
25854;SDS011;13680;49.936;11.344;2022-08-06T07:44:56;2.95;;;0.40;;
25854;SDS011;13680;49.936;11.344;2022-08-06T07:47:26;3.60;;;0.60;;
25854;SDS011;13680;49.936;11.344;2022-08-06T07:49:56;0.93;;;0.63;;
25854;SDS011;13680;49.936;11.344;2022-08-06T07:52:23;2.17;;;0.63;;
25854;SDS011;13680;49.936;11.344;2022-08-06T07:54:50;1.90;;;0.65;;
25854;SDS011;13680;49.936;11.344;2022-08-06T07:57:17;1.65;;;0.65;;
25854;SDS011;13680;49.936;11.344;2022-08-06T07:59:43;3.35;;;0.70;;
25854;SDS011;13680;49.936;11.344;2022-08-06T08:02:09;1.77;;;0.68;;
25854;SDS011;13680;49.936;11.344;2022-08-06T08:04:36;4.97;;;0.65;;
25854;SDS011;13680;49.936;11.344;2022-08-06T08:07:21;2.50;;;0.93;;
25854;SDS011;13680;49.936;11.344;2022-08-06T08:09:47;3.90;;;0.65;;
25854;SDS011;13680;49.936;11.344;2022-08-06T08:12:16;2.72;;;0.50;;
25854;SDS011;13680;49.936;11.344;2022-08-06T08:14:42;2.00;;;0.55;;
25854;SDS011;13680;49.936;11.344;2022-08-06T08:17:09;1.98;;;0.70;;
25854;SDS011;13680;49.936;11.344;2022-08-06T08:19:34;1.42;;;0.55;;
25854;SDS011;13680;49.936;11.344;2022-08-06T08:22:03;1.20;;;0.50;;
25854;SDS011;13680;49.936;11.344;2022-08-06T08:24:31;4.35;;;0.70;;
25854;SDS011;13680;49.936;11.344;2022-08-06T08:26:58;1.30;;;0.50;;
25854;SDS011;13680;49.936;11.344;2022-08-06T08:29:25;1.15;;;0.50;;
25854;SDS011;13680;49.936;11.344;2022-08-06T08:31:51;5.68;;;1.00;;
25854;SDS011;13680;49.936;11.344;2022-08-06T08:34:17;1.42;;;0.73;;
25854;SDS011;13680;49.936;11.344;2022-08-06T08:36:42;2.85;;;0.52;;
25854;SDS011;13680;49.936;11.344;2022-08-06T08:39:08;6.32;;;0.77;;
25854;SDS011;13680;49.936;11.344;2022-08-06T08:41:42;4.28;;;1.13;;
25854;SDS011;13680;49.936;11.344;2022-08-06T08:44:11;1.90;;;0.75;;
25854;SDS011;13680;49.936;11.344;2022-08-06T08:46:43;1.63;;;0.70;;
25854;SDS011;13680;49.936;11.344;2022-08-06T08:49:52;2.00;;;0.45;;
25854;SDS011;13680;49.936;11.344;2022-08-06T08:52:03;5.18;;;0.70;;
25854;SDS011;13680;49.936;11.344;2022-08-06T08:54:31;3.17;;;0.50;;
25854;SDS011;13680;49.936;11.344;2022-08-06T08:57:01;1.55;;;0.63;;
25854;SDS011;13680;49.936;11.344;2022-08-06T08:59:27;1.90;;;0.60;;
25854;SDS011;13680;49.936;11.344;2022-08-06T09:01:53;4.20;;;0.63;;
25854;SDS011;13680;49.936;11.344;2022-08-06T09:04:19;1.90;;;0.55;;
25854;SDS011;13680;49.936;11.344;2022-08-06T09:06:45;6.20;;;0.60;;
25854;SDS011;13680;49.936;11.344;2022-08-06T09:09:10;2.47;;;0.60;;
25854;SDS011;13680;49.936;11.344;2022-08-06T09:11:36;2.05;;;0.63;;
25854;SDS011;13680;49.936;11.344;2022-08-06T09:14:03;2.00;;;0.57;;
25854;SDS011;13680;49.936;11.344;2022-08-06T09:16:33;3.50;;;0.52;;
25854;SDS011;13680;49.936;11.344;2022-08-06T09:19:00;2.42;;;0.65;;
25854;SDS011;13680;49.936;11.344;2022-08-06T09:21:26;2.25;;;0.68;;
25854;SDS011;13680;49.936;11.344;2022-08-06T09:23:52;2.25;;;0.50;;
25854;SDS011;13680;49.936;11.344;2022-08-06T09:26:18;1.73;;;0.73;;
25854;SDS011;13680;49.936;11.344;2022-08-06T09:28:44;1.17;;;0.50;;
25854;SDS011;13680;49.936;11.344;2022-08-06T09:31:14;1.15;;;0.50;;
25854;SDS011;13680;49.936;11.344;2022-08-06T09:33:42;1.80;;;0.50;;
25854;SDS011;13680;49.936;11.344;2022-08-06T09:36:17;3.05;;;0.85;;
25854;SDS011;13680;49.936;11.344;2022-08-06T09:38:47;5.68;;;0.88;;
25854;SDS011;13680;49.936;11.344;2022-08-06T09:41:14;3.65;;;0.47;;
25854;SDS011;13680;49.936;11.344;2022-08-06T09:43:42;1.20;;;0.50;;
25854;SDS011;13680;49.936;11.344;2022-08-06T09:46:12;2.20;;;0.68;;
25854;SDS011;13680;49.936;11.344;2022-08-06T09:48:44;1.60;;;0.40;;
25854;SDS011;13680;49.936;11.344;2022-08-06T09:51:21;2.53;;;0.70;;
25854;SDS011;13680;49.936;11.344;2022-08-06T09:56:19;4.35;;;0.80;;
25854;SDS011;13680;49.936;11.344;2022-08-06T09:58:45;0.50;;;0.30;;
25854;SDS011;13680;49.936;11.344;2022-08-06T10:01:14;3.60;;;0.43;;
25854;SDS011;13680;49.936;11.344;2022-08-06T10:03:42;2.78;;;1.02;;
25854;SDS011;13680;49.936;11.344;2022-08-06T10:06:09;2.55;;;0.80;;
25854;SDS011;13680;49.936;11.344;2022-08-06T10:08:36;1.25;;;0.50;;
25854;SDS011;13680;49.936;11.344;2022-08-06T10:11:01;2.28;;;0.57;;
25854;SDS011;13680;49.936;11.344;2022-08-06T10:13:30;0.80;;;0.47;;
25854;SDS011;13680;49.936;11.344;2022-08-06T10:16:01;1.10;;;0.40;;
25854;SDS011;13680;49.936;11.344;2022-08-06T10:18:41;2.22;;;0.50;;
25854;SDS011;13680;49.936;11.344;2022-08-06T10:21:10;1.95;;;0.50;;
25854;SDS011;13680;49.936;11.344;2022-08-06T10:23:38;1.27;;;0.50;;
25854;SDS011;13680;49.936;11.344;2022-08-06T10:26:07;2.60;;;0.60;;
25854;SDS011;13680;49.936;11.344;2022-08-06T10:28:34;2.35;;;0.50;;
25854;SDS011;13680;49.936;11.344;2022-08-06T10:31:05;2.78;;;0.60;;
25854;SDS011;13680;49.936;11.344;2022-08-06T10:33:34;1.35;;;0.50;;
25854;SDS011;13680;49.936;11.344;2022-08-06T10:36:09;1.38;;;0.40;;
25854;SDS011;13680;49.936;11.344;2022-08-06T10:38:38;6.93;;;0.52;;
25854;SDS011;13680;49.936;11.344;2022-08-06T10:41:08;3.30;;;0.63;;
25854;SDS011;13680;49.936;11.344;2022-08-06T10:43:36;2.05;;;0.55;;
25854;SDS011;13680;49.936;11.344;2022-08-06T10:46:06;1.48;;;0.45;;
25854;SDS011;13680;49.936;11.344;2022-08-06T10:48:37;2.05;;;0.45;;
25854;SDS011;13680;49.936;11.344;2022-08-06T10:51:04;1.58;;;0.60;;
25854;SDS011;13680;49.936;11.344;2022-08-06T10:53:32;3.42;;;0.60;;
25854;SDS011;13680;49.936;11.344;2022-08-06T10:56:00;0.60;;;0.35;;
25854;SDS011;13680;49.936;11.344;2022-08-06T10:58:30;2.05;;;0.50;;
25854;SDS011;13680;49.936;11.344;2022-08-06T11:00:58;0.77;;;0.38;;
25854;SDS011;13680;49.936;11.344;2022-08-06T11:14:26;1.30;;;0.43;;
25854;SDS011;13680;49.936;11.344;2022-08-06T11:16:56;2.70;;;0.50;;
25854;SDS011;13680;49.936;11.344;2022-08-06T11:19:39;3.22;;;0.50;;
25854;SDS011;13680;49.936;11.344;2022-08-06T11:22:06;1.38;;;0.50;;
25854;SDS011;13680;49.936;11.344;2022-08-06T11:24:32;0.52;;;0.30;;
25854;SDS011;13680;49.936;11.344;2022-08-06T11:26:58;2.25;;;0.50;;
25854;SDS011;13680;49.936;11.344;2022-08-06T11:29:23;1.55;;;0.50;;
25854;SDS011;13680;49.936;11.344;2022-08-06T11:31:49;1.83;;;0.40;;
25854;SDS011;13680;49.936;11.344;2022-08-06T11:34:17;4.10;;;0.40;;
25854;SDS011;13680;49.936;11.344;2022-08-06T11:39:21;2.55;;;0.60;;
25854;SDS011;13680;49.936;11.344;2022-08-06T11:41:56;3.65;;;0.50;;
25854;SDS011;13680;49.936;11.344;2022-08-06T11:44:30;1.80;;;0.68;;
25854;SDS011;13680;49.936;11.344;2022-08-06T11:47:13;1.40;;;0.40;;
25854;SDS011;13680;49.936;11.344;2022-08-06T11:49:44;1.73;;;0.43;;
25854;SDS011;13680;49.936;11.344;2022-08-06T11:55:01;4.30;;;0.47;;
25854;SDS011;13680;49.936;11.344;2022-08-06T11:57:31;2.78;;;0.70;;
25854;SDS011;13680;49.936;11.344;2022-08-06T12:05:06;1.20;;;0.40;;
25854;SDS011;13680;49.936;11.344;2022-08-06T12:13:46;3.22;;;0.30;;
25854;SDS011;13680;49.936;11.344;2022-08-06T12:16:27;3.50;;;0.40;;
25854;SDS011;13680;49.936;11.344;2022-08-06T12:18:53;1.85;;;0.50;;
25854;SDS011;13680;49.936;11.344;2022-08-06T12:21:18;2.92;;;0.50;;
25854;SDS011;13680;49.936;11.344;2022-08-06T12:23:44;2.35;;;0.38;;
25854;SDS011;13680;49.936;11.344;2022-08-06T12:26:14;1.08;;;0.38;;
25854;SDS011;13680;49.936;11.344;2022-08-06T12:28:41;2.05;;;0.40;;
25854;SDS011;13680;49.936;11.344;2022-08-06T12:31:06;0.63;;;0.30;;
25854;SDS011;13680;49.936;11.344;2022-08-06T12:33:32;0.55;;;0.35;;
25854;SDS011;13680;49.936;11.344;2022-08-06T12:36:06;1.52;;;0.40;;
25854;SDS011;13680;49.936;11.344;2022-08-06T12:38:31;0.98;;;0.30;;
25854;SDS011;13680;49.936;11.344;2022-08-06T12:40:59;1.55;;;0.38;;
25854;SDS011;13680;49.936;11.344;2022-08-06T12:43:30;1.40;;;0.30;;
25854;SDS011;13680;49.936;11.344;2022-08-06T12:45:58;0.40;;;0.30;;
25854;SDS011;13680;49.936;11.344;2022-08-06T12:48:23;2.42;;;0.30;;
25854;SDS011;13680;49.936;11.344;2022-08-06T12:50:50;1.55;;;0.35;;
25854;SDS011;13680;49.936;11.344;2022-08-06T12:53:25;2.92;;;0.40;;
25854;SDS011;13680;49.936;11.344;2022-08-06T12:55:52;2.45;;;0.45;;
25854;SDS011;13680;49.936;11.344;2022-08-06T12:58:19;3.17;;;0.40;;
25854;SDS011;13680;49.936;11.344;2022-08-06T13:00:48;0.80;;;0.40;;
25854;SDS011;13680;49.936;11.344;2022-08-06T13:03:16;0.35;;;0.30;;
25854;SDS011;13680;49.936;11.344;2022-08-06T13:05:43;1.02;;;0.30;;
25854;SDS011;13680;49.936;11.344;2022-08-06T13:08:09;3.90;;;0.40;;
25854;SDS011;13680;49.936;11.344;2022-08-06T13:10:35;0.80;;;0.32;;
25854;SDS011;13680;49.936;11.344;2022-08-06T13:13:02;1.27;;;0.38;;
25854;SDS011;13680;49.936;11.344;2022-08-06T13:15:29;0.80;;;0.30;;
25854;SDS011;13680;49.936;11.344;2022-08-06T13:18:15;1.92;;;0.57;;
25854;SDS011;13680;49.936;11.344;2022-08-06T13:20:46;2.65;;;0.40;;
25854;SDS011;13680;49.936;11.344;2022-08-06T13:23:16;1.02;;;0.30;;
25854;SDS011;13680;49.936;11.344;2022-08-06T13:31:35;1.33;;;0.35;;
25854;SDS011;13680;49.936;11.344;2022-08-06T13:34:02;1.38;;;0.32;;
25854;SDS011;13680;49.936;11.344;2022-08-06T13:36:29;1.02;;;0.40;;
25854;SDS011;13680;49.936;11.344;2022-08-06T13:38:56;0.60;;;0.30;;
25854;SDS011;13680;49.936;11.344;2022-08-06T13:41:26;1.20;;;0.47;;
25854;SDS011;13680;49.936;11.344;2022-08-06T13:43:52;2.00;;;0.32;;
25854;SDS011;13680;49.936;11.344;2022-08-06T13:46:19;1.85;;;0.95;;
25854;SDS011;13680;49.936;11.344;2022-08-06T13:48:46;1.23;;;0.40;;
25854;SDS011;13680;49.936;11.344;2022-08-06T13:51:17;2.83;;;0.52;;
25854;SDS011;13680;49.936;11.344;2022-08-06T13:53:44;0.90;;;0.30;;
25854;SDS011;13680;49.936;11.344;2022-08-06T13:56:09;3.40;;;0.50;;
25854;SDS011;13680;49.936;11.344;2022-08-06T13:58:35;2.92;;;0.32;;
25854;SDS011;13680;49.936;11.344;2022-08-06T14:01:00;1.30;;;0.50;;
25854;SDS011;13680;49.936;11.344;2022-08-06T14:03:26;0.60;;;0.28;;
25854;SDS011;13680;49.936;11.344;2022-08-06T14:05:52;2.17;;;0.28;;
25854;SDS011;13680;49.936;11.344;2022-08-06T14:08:18;1.35;;;0.40;;
25854;SDS011;13680;49.936;11.344;2022-08-06T14:10:44;0.35;;;0.20;;
25854;SDS011;13680;49.936;11.344;2022-08-06T14:13:09;3.47;;;0.40;;
25854;SDS011;13680;49.936;11.344;2022-08-06T14:15:41;0.77;;;0.40;;
25854;SDS011;13680;49.936;11.344;2022-08-06T14:18:08;0.30;;;0.20;;
25854;SDS011;13680;49.936;11.344;2022-08-06T14:20:33;2.72;;;0.40;;
25854;SDS011;13680;49.936;11.344;2022-08-06T14:22:58;1.40;;;0.30;;
25854;SDS011;13680;49.936;11.344;2022-08-06T14:25:24;0.88;;;0.40;;
25854;SDS011;13680;49.936;11.344;2022-08-06T14:27:50;0.40;;;0.22;;
25854;SDS011;13680;49.936;11.344;2022-08-06T14:30:17;2.72;;;0.47;;
25854;SDS011;13680;49.936;11.344;2022-08-06T14:32:43;1.63;;;0.40;;
25854;SDS011;13680;49.936;11.344;2022-08-06T14:35:09;0.50;;;0.22;;
25854;SDS011;13680;49.936;11.344;2022-08-06T14:37:36;2.25;;;0.30;;
25854;SDS011;13680;49.936;11.344;2022-08-06T14:40:02;3.70;;;0.40;;
25854;SDS011;13680;49.936;11.344;2022-08-06T14:42:28;2.35;;;0.30;;
25854;SDS011;13680;49.936;11.344;2022-08-06T14:45:12;1.85;;;0.55;;
25854;SDS011;13680;49.936;11.344;2022-08-06T14:47:37;0.52;;;0.30;;
25854;SDS011;13680;49.936;11.344;2022-08-06T14:50:03;1.42;;;0.40;;
25854;SDS011;13680;49.936;11.344;2022-08-06T14:52:30;4.30;;;0.77;;
25854;SDS011;13680;49.936;11.344;2022-08-06T14:54:55;5.63;;;0.70;;
25854;SDS011;13680;49.936;11.344;2022-08-06T14:57:21;14.43;;;1.35;;
25854;SDS011;13680;49.936;11.344;2022-08-06T14:59:46;13.82;;;2.20;;
25854;SDS011;13680;49.936;11.344;2022-08-06T15:02:12;1.63;;;0.60;;
25854;SDS011;13680;49.936;11.344;2022-08-06T15:04:39;23.08;;;1.63;;
25854;SDS011;13680;49.936;11.344;2022-08-06T15:07:05;0.77;;;0.30;;
25854;SDS011;13680;49.936;11.344;2022-08-06T15:09:31;1.70;;;0.40;;
25854;SDS011;13680;49.936;11.344;2022-08-06T15:11:58;0.40;;;0.20;;
25854;SDS011;13680;49.936;11.344;2022-08-06T15:14:24;1.90;;;0.35;;
25854;SDS011;13680;49.936;11.344;2022-08-06T15:16:51;1.45;;;0.30;;
25854;SDS011;13680;49.936;11.344;2022-08-06T15:19:17;0.70;;;0.40;;
25854;SDS011;13680;49.936;11.344;2022-08-06T15:21:42;1.20;;;0.38;;
25854;SDS011;13680;49.936;11.344;2022-08-06T15:24:07;0.60;;;0.40;;
25854;SDS011;13680;49.936;11.344;2022-08-06T15:26:33;1.63;;;0.40;;
25854;SDS011;13680;49.936;11.344;2022-08-06T15:28:58;1.60;;;0.50;;
25854;SDS011;13680;49.936;11.344;2022-08-06T15:31:26;2.20;;;0.30;;
25854;SDS011;13680;49.936;11.344;2022-08-06T15:33:52;1.40;;;0.30;;
25854;SDS011;13680;49.936;11.344;2022-08-06T15:36:17;1.67;;;0.30;;
25854;SDS011;13680;49.936;11.344;2022-08-06T15:38:42;1.13;;;0.20;;
25854;SDS011;13680;49.936;11.344;2022-08-06T15:41:08;4.03;;;0.65;;
25854;SDS011;13680;49.936;11.344;2022-08-06T15:43:33;0.50;;;0.30;;
25854;SDS011;13680;49.936;11.344;2022-08-06T15:45:58;1.55;;;0.40;;